Time;durP1;ratioP1;P1;durP2;ratioP2;P2;SDS_P1;SDS_P2;PMS_P1;PMS_P2;Temp;Humidity;BMP_temperature;BMP_pressure;BME280_temperature;BME280_humidity;BME280_pressure;Samples;Min_cycle;Max_cycle;Signal;HPM_P1;HPM_P2
2024/01/23 00:01:24;;;;;;;16.92;5.68;;;8.10;99.90;;;;;;5005998;28;20280;-75
2024/01/23 00:03:52;;;;;;;27.08;3.88;;;8.00;99.90;;;;;;4998367;28;20202;-72
2024/01/23 00:06:19;;;;;;;13.88;4.10;;;8.00;99.90;;;;;;5008992;28;20647;-74
2024/01/23 00:08:48;;;;;;;16.40;3.45;;;8.00;99.90;;;;;;5000978;28;20261;-74
2024/01/23 00:11:15;;;;;;;11.13;3.80;;;7.90;99.90;;;;;;4997988;28;20560;-74
2024/01/23 00:13:45;;;;;;;17.05;5.13;;;7.90;99.90;;;;;;4997687;28;20256;-74
2024/01/23 00:16:12;;;;;;;7.40;2.20;;;7.90;99.90;;;;;;4997203;28;20322;-74
2024/01/23 00:18:39;;;;;;;12.98;3.53;;;7.90;99.90;;;;;;5004318;28;20251;-74
2024/01/23 00:21:08;;;;;;;17.95;4.80;;;7.90;99.90;;;;;;5006342;28;20256;-74
2024/01/23 00:23:35;;;;;;;10.25;3.22;;;7.90;99.90;;;;;;5008858;28;20286;-74
2024/01/23 00:26:01;;;;;;;18.63;4.38;;;7.90;99.90;;;;;;5014603;28;20295;-74
2024/01/23 00:28:28;;;;;;;19.65;4.80;;;7.90;99.90;;;;;;5007117;28;20210;-74
2024/01/23 00:30:55;;;;;;;9.77;3.40;;;8.00;99.90;;;;;;5004419;28;20205;-74
2024/01/23 00:33:22;;;;;;;9.60;5.05;;;8.00;99.90;;;;;;5006287;28;20256;-74
2024/01/23 00:35:49;;;;;;;14.57;4.28;;;8.00;99.90;;;;;;5007593;28;20190;-74
2024/01/23 00:38:18;;;;;;;14.32;3.45;;;8.00;99.90;;;;;;5001585;28;20260;-74
2024/01/23 00:40:44;;;;;;;18.15;4.03;;;8.10;99.90;;;;;;5007225;28;20229;-73
2024/01/23 00:43:12;;;;;;;9.20;2.83;;;8.10;99.90;;;;;;5007189;28;20229;-72
2024/01/23 00:45:39;;;;;;;5.25;1.45;;;8.20;99.90;;;;;;5007099;28;20229;-76
2024/01/23 00:48:06;;;;;;;3.78;1.45;;;7.90;99.90;;;;;;5005724;28;20240;-75
2024/01/23 00:50:33;;;;;;;11.05;2.30;;;7.60;99.90;;;;;;5010824;28;20241;-75
2024/01/23 00:53:00;;;;;;;5.28;1.23;;;7.20;99.90;;;;;;5006385;28;20826;-74
2024/01/23 00:55:28;;;;;;;4.40;1.73;;;7.00;99.90;;;;;;5005741;28;20707;-74
2024/01/23 00:57:55;;;;;;;4.18;1.55;;;6.90;99.90;;;;;;5005433;28;20269;-75
2024/01/23 01:00:22;;;;;;;2.90;1.65;;;6.80;99.90;;;;;;5009195;28;20271;-74
2024/01/23 01:02:51;;;;;;;5.47;1.70;;;6.70;99.90;;;;;;5005547;28;20276;-75
2024/01/23 01:05:18;;;;;;;7.40;1.85;;;6.70;99.90;;;;;;5008733;28;20279;-75
2024/01/23 01:07:45;;;;;;;9.43;1.98;;;6.70;99.90;;;;;;4996875;28;20531;-75
2024/01/23 01:10:12;;;;;;;3.90;1.73;;;6.70;99.90;;;;;;5000978;28;20206;-76
2024/01/23 01:12:40;;;;;;;5.57;2.00;;;6.60;99.90;;;;;;5006548;28;20614;-75
2024/01/23 01:15:08;;;;;;;8.55;2.45;;;6.60;99.90;;;;;;5004135;28;20218;-75
2024/01/23 01:17:35;;;;;;;6.85;2.35;;;6.70;99.90;;;;;;5006920;28;20202;-75
2024/01/23 01:20:02;;;;;;;7.40;2.72;;;6.80;99.90;;;;;;4996542;28;20202;-74
2024/01/23 01:22:29;;;;;;;9.32;3.00;;;6.90;99.90;;;;;;5006315;28;20225;-74
2024/01/23 01:24:56;;;;;;;11.48;4.82;;;7.10;99.90;;;;;;5002148;28;20226;-74
2024/01/23 01:27:23;;;;;;;14.75;2.63;;;7.20;99.90;;;;;;4999996;28;20205;-75
2024/01/23 01:29:51;;;;;;;10.65;3.20;;;7.30;99.90;;;;;;5005128;28;20197;-73
2024/01/23 01:32:18;;;;;;;15.68;3.03;;;7.30;99.90;;;;;;5000082;28;20226;-75
2024/01/23 01:34:45;;;;;;;9.52;2.60;;;7.50;99.90;;;;;;4998408;28;20645;-74
2024/01/23 01:37:12;;;;;;;11.85;2.60;;;7.50;99.90;;;;;;5001775;28;20206;-75
2024/01/23 01:39:39;;;;;;;19.23;3.88;;;7.60;99.90;;;;;;5002755;28;20229;-74
2024/01/23 01:42:06;;;;;;;28.00;4.43;;;7.70;99.90;;;;;;5009706;28;20592;-73
2024/01/23 01:44:34;;;;;;;9.65;2.22;;;7.70;99.90;;;;;;5006903;28;20205;-74
2024/01/23 01:47:03;;;;;;;9.77;2.83;;;7.70;99.90;;;;;;5003612;28;20213;-74
2024/01/23 01:49:30;;;;;;;15.90;4.85;;;7.80;99.90;;;;;;5008485;28;20566;-73
2024/01/23 01:51:58;;;;;;;9.20;2.95;;;7.80;99.90;;;;;;5006267;28;20225;-74
2024/01/23 01:54:28;;;;;;;15.68;3.40;;;7.80;99.90;;;;;;4999442;28;20206;-73
2024/01/23 01:56:59;;;;;;;14.60;3.90;;;7.80;99.90;;;;;;5000521;28;20225;-73
2024/01/23 01:59:26;;;;;;;15.50;4.32;;;7.80;99.90;;;;;;4998009;28;20210;-73
2024/01/23 02:01:53;;;;;;;12.18;3.00;;;7.80;99.90;;;;;;5007863;28;20229;-74
2024/01/23 02:04:22;;;;;;;11.55;3.58;;;7.80;99.90;;;;;;5004721;28;20622;-74
2024/01/23 02:06:49;;;;;;;18.20;3.42;;;7.80;99.90;;;;;;4997022;28;20759;-74
2024/01/23 02:09:16;;;;;;;8.10;3.80;;;7.90;99.90;;;;;;5008846;28;20260;-73
2024/01/23 02:11:56;;;;;;;11.60;3.03;;;7.90;99.90;;;;;;5004335;28;20284;-73
2024/01/23 02:14:23;;;;;;;7.13;2.92;;;7.90;99.90;;;;;;4997076;28;20299;-73
2024/01/23 02:16:50;;;;;;;13.15;3.05;;;8.00;99.90;;;;;;5003364;28;20201;-74
2024/01/23 02:19:16;;;;;;;20.98;4.03;;;7.90;99.90;;;;;;5006738;28;20619;-74
2024/01/23 02:21:45;;;;;;;17.33;4.60;;;8.00;99.90;;;;;;4996361;28;20836;-76
2024/01/23 02:24:13;;;;;;;26.90;6.68;;;8.00;99.90;;;;;;5009269;28;20210;-75
2024/01/23 02:26:40;;;;;;;16.80;3.28;;;7.90;99.90;;;;;;5010928;28;20284;-73
2024/01/23 02:29:07;;;;;;;13.63;3.10;;;8.00;99.90;;;;;;4997728;28;20728;-73
2024/01/23 02:31:34;;;;;;;17.58;3.67;;;8.00;99.90;;;;;;4996359;28;20202;-74
2024/01/23 02:34:01;;;;;;;23.75;5.00;;;8.00;99.90;;;;;;4999356;28;20555;-73
2024/01/23 02:36:28;;;;;;;8.50;3.80;;;8.00;99.90;;;;;;5000782;28;20684;-74
2024/01/23 02:38:55;;;;;;;16.40;3.72;;;8.00;99.90;;;;;;4996409;28;20676;-74
2024/01/23 02:41:23;;;;;;;11.75;2.88;;;8.00;99.90;;;;;;4998586;28;20661;-74
2024/01/23 02:43:50;;;;;;;9.65;2.65;;;8.00;99.90;;;;;;5004598;28;20283;-73
2024/01/23 02:46:17;;;;;;;15.18;4.25;;;8.00;99.90;;;;;;5001541;28;20221;-73
2024/01/23 02:48:44;;;;;;;11.77;3.45;;;8.00;99.90;;;;;;5000629;28;20218;-73
2024/01/23 02:51:18;;;;;;;16.63;3.97;;;8.00;99.90;;;;;;4994525;28;20206;-74
2024/01/23 02:53:45;;;;;;;17.50;4.03;;;7.90;99.90;;;;;;4998627;28;20328;-74
2024/01/23 02:56:12;;;;;;;9.65;3.25;;;8.00;99.90;;;;;;4997172;28;20202;-74
2024/01/23 02:58:41;;;;;;;12.10;3.30;;;7.90;99.90;;;;;;5002905;28;20245;-74
2024/01/23 03:01:08;;;;;;;19.83;3.70;;;8.00;99.90;;;;;;4997824;28;20267;-74
2024/01/23 03:03:35;;;;;;;12.50;3.72;;;7.90;99.90;;;;;;5000504;28;20230;-73
2024/01/23 03:06:02;;;;;;;16.88;3.75;;;7.90;99.90;;;;;;5004275;28;20279;-74
2024/01/23 03:08:29;;;;;;;15.25;3.15;;;8.00;99.90;;;;;;5004910;28;20304;-73
2024/01/23 03:10:56;;;;;;;12.25;4.60;;;8.00;99.90;;;;;;4998544;28;20205;-73
2024/01/23 03:13:23;;;;;;;11.18;3.30;;;8.10;99.90;;;;;;5003034;28;20556;-74
2024/01/23 03:15:53;;;;;;;12.23;4.03;;;8.10;99.90;;;;;;4998765;28;20253;-75
2024/01/23 03:18:20;;;;;;;20.52;3.97;;;8.00;99.90;;;;;;4998549;28;20764;-73
2024/01/23 03:20:47;;;;;;;14.90;4.00;;;8.00;99.90;;;;;;5006519;28;20292;-74
2024/01/23 03:23:13;;;;;;;16.27;4.22;;;8.00;99.90;;;;;;4996914;28;20262;-75
2024/01/23 03:25:40;;;;;;;11.07;3.30;;;8.10;99.90;;;;;;5004756;28;20640;-74
2024/01/23 03:28:07;;;;;;;17.30;4.47;;;8.10;99.90;;;;;;5009712;28;20205;-74
2024/01/23 03:30:34;;;;;;;20.35;4.28;;;8.10;99.90;;;;;;5004611;28;20640;-74
2024/01/23 03:33:03;;;;;;;15.90;4.18;;;8.10;99.90;;;;;;4996457;28;20699;-73
2024/01/23 03:35:30;;;;;;;13.48;4.35;;;8.10;99.90;;;;;;5001282;28;20288;-74
2024/01/23 03:37:57;;;;;;;20.73;4.30;;;8.10;99.90;;;;;;5003685;28;20202;-74
2024/01/23 03:40:24;;;;;;;22.48;7.75;;;8.10;99.90;;;;;;5012981;28;20620;-74
2024/01/23 03:42:51;;;;;;;11.57;3.08;;;8.10;99.90;;;;;;5005553;28;20272;-74
2024/01/23 03:45:18;;;;;;;21.25;4.18;;;8.10;99.90;;;;;;5004554;28;20252;-73
2024/01/23 03:47:45;;;;;;;17.13;5.55;;;8.10;99.90;;;;;;5012126;28;20252;-72
2024/01/23 03:50:14;;;;;;;13.00;3.38;;;8.00;99.90;;;;;;5001200;28;20238;-74
2024/01/23 03:52:41;;;;;;;9.80;3.20;;;8.10;99.90;;;;;;5002077;28;20656;-74
2024/01/23 03:55:08;;;;;;;11.15;3.17;;;8.10;99.90;;;;;;4996708;28;20229;-74
2024/01/23 03:57:35;;;;;;;12.98;3.63;;;8.10;99.90;;;;;;5001340;28;20198;-73
2024/01/23 04:00:03;;;;;;;10.45;3.47;;;8.10;99.90;;;;;;5005939;28;20620;-74
2024/01/23 04:02:31;;;;;;;15.13;4.65;;;8.10;99.90;;;;;;5004461;28;20222;-73
2024/01/23 04:04:58;;;;;;;10.45;3.53;;;8.10;99.90;;;;;;5010007;28;20201;-74
2024/01/23 04:07:28;;;;;;;20.55;4.95;;;8.10;99.90;;;;;;5001413;28;20230;-73
2024/01/23 04:09:55;;;;;;;14.35;3.33;;;8.00;99.90;;;;;;5009836;28;20572;-73
2024/01/23 04:12:22;;;;;;;12.25;4.95;;;8.00;99.90;;;;;;5004270;28;20295;-74
2024/01/23 04:14:49;;;;;;;16.48;4.40;;;8.00;99.90;;;;;;5004414;28;20201;-73
2024/01/23 04:17:17;;;;;;;18.70;3.90;;;8.00;99.90;;;;;;5011482;28;20229;-73
2024/01/23 04:19:44;;;;;;;17.20;4.70;;;8.00;99.90;;;;;;5005387;28;20210;-73
2024/01/23 04:22:13;;;;;;;16.85;3.97;;;8.10;99.90;;;;;;5007059;28;20248;-73
2024/01/23 04:24:42;;;;;;;19.52;4.55;;;8.00;99.90;;;;;;5006208;28;20225;-74
2024/01/23 04:27:09;;;;;;;16.08;5.75;;;8.10;99.90;;;;;;5004523;28;20261;-73
2024/01/23 04:29:36;;;;;;;17.70;5.03;;;8.10;99.90;;;;;;5009171;28;20260;-72
2024/01/23 04:32:04;;;;;;;13.70;4.88;;;8.00;99.90;;;;;;4998224;28;20222;-72
2024/01/23 04:34:31;;;;;;;10.48;4.88;;;8.10;99.90;;;;;;4999998;28;20210;-73
2024/01/23 04:36:58;;;;;;;29.35;6.57;;;8.10;99.90;;;;;;5008754;28;20197;-73
2024/01/23 04:39:24;;;;;;;18.30;4.50;;;8.00;99.90;;;;;;5002571;28;20264;-73
2024/01/23 04:41:53;;;;;;;19.45;4.47;;;8.00;99.90;;;;;;5004556;28;20226;-74
2024/01/23 04:44:20;;;;;;;16.77;4.40;;;8.00;99.90;;;;;;5005679;28;20206;-73
2024/01/23 04:46:47;;;;;;;16.73;4.32;;;8.00;99.90;;;;;;4998989;28;20229;-73
2024/01/23 04:49:14;;;;;;;20.95;4.35;;;8.10;99.90;;;;;;5007024;28;20205;-73
2024/01/23 04:51:42;;;;;;;15.63;5.38;;;8.10;99.90;;;;;;4999508;28;20213;-73
2024/01/23 04:54:08;;;;;;;19.48;5.55;;;8.10;99.90;;;;;;5003837;28;20198;-74
2024/01/23 04:56:35;;;;;;;17.10;5.40;;;8.10;99.90;;;;;;5002400;28;20718;-74
2024/01/23 04:59:03;;;;;;;11.95;3.53;;;8.00;99.90;;;;;;5009727;28;20441;-73
2024/01/23 05:01:30;;;;;;;17.15;4.10;;;8.10;99.90;;;;;;5006486;28;20201;-74
2024/01/23 05:03:57;;;;;;;16.35;4.65;;;8.10;99.90;;;;;;4999388;28;20233;-73
2024/01/23 05:06:24;;;;;;;27.15;5.15;;;8.10;99.90;;;;;;4999854;28;20225;-73
2024/01/23 05:08:51;;;;;;;20.33;5.28;;;8.10;99.90;;;;;;5002034;28;20249;-73
2024/01/23 05:11:18;;;;;;;19.58;6.05;;;8.10;99.90;;;;;;5007669;28;20285;-74
2024/01/23 05:13:45;;;;;;;22.42;5.15;;;8.00;99.90;;;;;;4995781;28;20288;-74
2024/01/23 05:16:13;;;;;;;13.25;3.85;;;8.00;99.90;;;;;;5000194;28;20198;-74
2024/01/23 05:18:40;;;;;;;22.52;3.72;;;8.10;99.90;;;;;;5000846;28;20206;-74
2024/01/23 05:21:07;;;;;;;18.85;4.82;;;8.00;99.90;;;;;;4999181;28;20202;-74
2024/01/23 05:23:34;;;;;;;17.48;5.05;;;8.00;99.90;;;;;;5003102;28;20229;-74
2024/01/23 05:26:01;;;;;;;19.15;5.07;;;8.00;99.90;;;;;;5001919;28;20205;-74
2024/01/23 05:28:28;;;;;;;20.77;5.32;;;7.90;99.90;;;;;;4996111;28;20202;-73
2024/01/23 05:30:55;;;;;;;13.73;4.47;;;8.00;99.90;;;;;;5002237;28;20255;-74
2024/01/23 05:33:23;;;;;;;11.25;4.53;;;8.00;99.90;;;;;;5000851;28;20598;-74
2024/01/23 05:35:50;;;;;;;20.48;4.88;;;8.10;99.90;;;;;;5000088;28;20718;-74
2024/01/23 05:38:17;;;;;;;14.18;4.47;;;8.00;99.90;;;;;;4997389;28;20198;-74
2024/01/23 05:40:44;;;;;;;18.58;4.63;;;8.10;99.90;;;;;;5002152;28;20206;-73
2024/01/23 05:43:12;;;;;;;38.30;5.50;;;8.10;99.90;;;;;;5007588;28;20225;-74
2024/01/23 05:45:40;;;;;;;32.17;6.35;;;8.10;99.90;;;;;;5006681;28;20556;-74
2024/01/23 05:48:07;;;;;;;19.52;4.82;;;8.10;99.90;;;;;;4996983;28;20226;-73
2024/01/23 05:50:36;;;;;;;19.70;4.60;;;8.10;99.90;;;;;;4995230;28;20249;-73
2024/01/23 05:53:03;;;;;;;15.18;5.10;;;8.20;99.90;;;;;;4996041;28;20277;-73
2024/01/23 05:55:31;;;;;;;19.55;5.40;;;8.20;99.90;;;;;;5002709;28;20206;-74
2024/01/23 05:57:58;;;;;;;24.17;5.47;;;8.20;99.90;;;;;;4995018;28;20237;-74
2024/01/23 06:00:25;;;;;;;27.58;5.50;;;8.20;99.90;;;;;;5000413;28;20209;-73
2024/01/23 06:02:52;;;;;;;17.92;4.03;;;8.20;99.90;;;;;;5001515;28;20300;-74
2024/01/23 06:05:20;;;;;;;14.00;4.93;;;8.10;99.90;;;;;;4998010;28;20199;-73
2024/01/23 06:07:50;;;;;;;18.08;4.75;;;8.10;99.90;;;;;;5001591;28;20282;-73
2024/01/23 06:10:17;;;;;;;25.27;4.55;;;8.10;99.90;;;;;;5003559;28;20260;-73
2024/01/23 06:12:44;;;;;;;24.75;6.03;;;8.10;99.90;;;;;;4995674;28;20252;-73
2024/01/23 06:15:11;;;;;;;24.60;5.70;;;8.00;99.90;;;;;;4998751;28;20723;-74
2024/01/23 06:17:39;;;;;;;19.92;6.78;;;8.00;99.90;;;;;;5002889;28;20197;-72
2024/01/23 06:20:08;;;;;;;22.17;4.55;;;8.10;99.90;;;;;;5002661;28;20257;-74
2024/01/23 06:22:35;;;;;;;27.85;5.63;;;8.10;99.90;;;;;;4994858;28;20260;-72
2024/01/23 06:25:04;;;;;;;25.20;5.55;;;8.20;99.90;;;;;;4997143;28;20563;-73
2024/01/23 06:27:32;;;;;;;19.77;4.45;;;8.10;99.90;;;;;;5000654;28;20265;-74
2024/01/23 06:29:59;;;;;;;21.05;4.95;;;8.10;99.90;;;;;;4998327;28;20211;-73
2024/01/23 06:32:27;;;;;;;15.70;4.80;;;8.10;99.90;;;;;;4994822;28;20272;-75
2024/01/23 06:34:54;;;;;;;19.35;4.43;;;8.10;99.90;;;;;;4995674;28;20653;-74
2024/01/23 06:37:22;;;;;;;17.67;4.28;;;8.10;99.90;;;;;;5000480;28;20202;-74
2024/01/23 06:39:50;;;;;;;18.52;6.35;;;8.10;99.90;;;;;;5001473;28;20237;-76
2024/01/23 06:42:18;;;;;;;21.05;5.32;;;8.10;99.90;;;;;;5003627;28;20217;-74
2024/01/23 06:44:45;;;;;;;25.95;6.88;;;8.10;99.90;;;;;;5004555;28;20237;-74
2024/01/23 06:47:13;;;;;;;20.55;5.40;;;8.10;99.90;;;;;;5006095;28;20217;-74
2024/01/23 06:49:39;;;;;;;26.98;6.82;;;8.00;99.90;;;;;;5001611;28;20220;-74
2024/01/23 06:52:06;;;;;;;33.08;6.47;;;8.00;99.90;;;;;;4994171;28;20689;-74
2024/01/23 06:54:33;;;;;;;17.40;6.20;;;8.00;99.90;;;;;;5001338;28;20255;-73
2024/01/23 06:57:00;;;;;;;30.45;4.93;;;7.90;99.90;;;;;;4999229;28;20201;-73
2024/01/23 06:59:29;;;;;;;26.63;5.70;;;7.90;99.90;;;;;;4995891;28;20280;-73
2024/01/23 07:01:56;;;;;;;30.63;6.25;;;7.80;99.90;;;;;;5010812;28;20319;-73
2024/01/23 07:04:24;;;;;;;19.20;5.05;;;7.80;99.90;;;;;;5003114;28;20209;-74
2024/01/23 07:06:51;;;;;;;16.27;5.40;;;7.90;99.90;;;;;;4995125;28;20258;-74
2024/01/23 07:09:18;;;;;;;24.83;6.30;;;7.90;99.90;;;;;;5001091;28;20209;-73
2024/01/23 07:11:47;;;;;;;21.92;6.05;;;8.00;99.90;;;;;;5001144;28;20249;-72
2024/01/23 07:14:14;;;;;;;19.05;5.75;;;8.00;99.90;;;;;;5004581;28;20284;-74
2024/01/23 07:16:42;;;;;;;32.20;7.43;;;8.00;99.90;;;;;;5002023;28;20213;-73
2024/01/23 07:19:10;;;;;;;31.13;5.90;;;8.10;99.90;;;;;;5004279;28;20208;-74
2024/01/23 07:21:40;;;;;;;29.70;6.78;;;8.10;99.90;;;;;;4998550;28;20272;-75
2024/01/23 07:24:07;;;;;;;27.58;6.70;;;8.00;99.90;;;;;;4993414;28;20301;-74
2024/01/23 07:26:34;;;;;;;27.40;5.68;;;8.00;99.90;;;;;;4995537;28;20648;-73
2024/01/23 07:29:03;;;;;;;21.17;6.30;;;7.90;99.90;;;;;;4995659;28;20258;-75
2024/01/23 07:31:30;;;;;;;22.83;5.90;;;7.90;99.90;;;;;;5010389;28;20549;-73
2024/01/23 07:33:59;;;;;;;18.02;5.03;;;7.90;99.90;;;;;;5003038;28;20263;-73
2024/01/23 07:36:27;;;;;;;20.45;5.72;;;7.90;99.90;;;;;;5001933;28;20206;-72
2024/01/23 07:38:54;;;;;;;28.15;6.57;;;7.80;99.90;;;;;;4998008;28;20272;-72
2024/01/23 07:41:22;;;;;;;33.40;6.68;;;7.80;99.90;;;;;;5002600;28;20205;-70
2024/01/23 07:43:48;;;;;;;19.08;4.50;;;7.80;99.90;;;;;;4997619;28;20225;-72
2024/01/23 07:46:17;;;;;;;22.27;5.15;;;7.90;99.90;;;;;;5011126;28;20252;-71
2024/01/23 07:48:44;;;;;;;40.95;6.82;;;7.90;99.90;;;;;;5000215;28;20284;-77
2024/01/23 07:51:13;;;;;;;18.92;6.03;;;7.90;99.90;;;;;;5000330;28;20266;-74
2024/01/23 07:53:43;;;;;;;23.70;6.53;;;7.90;99.90;;;;;;5008887;28;20225;-74
2024/01/23 07:56:10;;;;;;;19.50;6.10;;;8.00;99.90;;;;;;5003475;28;20741;-75
2024/01/23 07:58:37;;;;;;;25.83;6.50;;;8.00;99.90;;;;;;5001411;28;20213;-74
2024/01/23 08:01:05;;;;;;;28.70;6.18;;;8.00;99.90;;;;;;4996663;28;20265;-75
2024/01/23 08:03:33;;;;;;;23.65;7.03;;;8.10;99.90;;;;;;5002376;28;20287;-75
2024/01/23 08:06:00;;;;;;;21.95;6.68;;;8.10;99.90;;;;;;5003427;28;20253;-74
2024/01/23 08:08:29;;;;;;;39.25;7.65;;;8.10;99.90;;;;;;5001991;28;20236;-74
2024/01/23 08:10:56;;;;;;;20.65;5.80;;;8.20;99.90;;;;;;5003003;28;20213;-74
2024/01/23 08:13:23;;;;;;;24.05;7.35;;;8.20;99.90;;;;;;5003920;28;20672;-73
2024/01/23 08:15:50;;;;;;;22.83;5.25;;;8.20;99.90;;;;;;5000092;28;20230;-75
2024/01/23 08:18:18;;;;;;;28.02;6.32;;;8.20;99.90;;;;;;5005615;28;20198;-73
2024/01/23 08:20:45;;;;;;;13.82;5.70;;;8.30;99.90;;;;;;5006651;28;20268;-75
2024/01/23 08:23:12;;;;;;;30.35;6.15;;;8.30;99.90;;;;;;5003945;28;20264;-72
2024/01/23 08:25:42;;;;;;;26.60;6.25;;;8.20;99.90;;;;;;5002253;28;20260;-74
2024/01/23 08:28:08;;;;;;;26.52;5.30;;;8.30;99.90;;;;;;5000321;28;20685;-73
2024/01/23 08:30:35;;;;;;;19.63;7.93;;;8.30;99.90;;;;;;4997596;28;20261;-73
2024/01/23 08:33:03;;;;;;;23.80;4.97;;;8.50;99.90;;;;;;5005317;28;20234;-73
2024/01/23 08:35:30;;;;;;;24.35;5.47;;;8.50;99.90;;;;;;4998602;28;20206;-73
2024/01/23 08:37:57;;;;;;;25.20;6.47;;;8.40;99.90;;;;;;5010473;28;20197;-72
2024/01/23 08:40:24;;;;;;;15.93;5.18;;;8.60;99.90;;;;;;5004048;28;20241;-72
2024/01/23 08:42:52;;;;;;;28.25;6.80;;;8.60;99.90;;;;;;5011024;28;20226;-73
2024/01/23 08:45:19;;;;;;;37.78;6.72;;;8.60;99.90;;;;;;5005888;28;20202;-72
2024/01/23 08:47:46;;;;;;;21.88;6.68;;;8.70;99.90;;;;;;5005949;28;20692;-72
2024/01/23 08:50:13;;;;;;;29.80;5.03;;;8.60;99.90;;;;;;5008422;28;20201;-73
2024/01/23 08:52:41;;;;;;;26.10;6.40;;;8.70;99.90;;;;;;5003648;28;20226;-73
2024/01/23 08:55:08;;;;;;;32.83;7.22;;;8.70;99.90;;;;;;5004600;28;20202;-73
2024/01/23 08:57:35;;;;;;;36.10;7.88;;;8.70;99.90;;;;;;5004251;28;20649;-73
2024/01/23 09:00:05;;;;;;;27.88;7.03;;;8.80;99.90;;;;;;5004135;28;20201;-73
2024/01/23 09:02:32;;;;;;;21.52;7.38;;;8.80;99.90;;;;;;5009512;28;20253;-71
2024/01/23 09:04:59;;;;;;;29.63;6.35;;;8.90;99.90;;;;;;5006291;28;20202;-74
2024/01/23 09:07:26;;;;;;;36.13;6.90;;;9.00;99.90;;;;;;5010429;28;20264;-73
2024/01/23 09:09:52;;;;;;;20.27;6.50;;;8.80;99.90;;;;;;4999148;28;20214;-73
2024/01/23 09:12:21;;;;;;;30.10;7.97;;;8.90;99.90;;;;;;5005373;28;20736;-73
2024/01/23 09:14:48;;;;;;;19.02;6.90;;;8.90;99.90;;;;;;5007056;28;20206;-71
2024/01/23 09:17:17;;;;;;;33.83;7.68;;;8.90;99.90;;;;;;4999844;28;20234;-72
2024/01/23 09:19:43;;;;;;;26.98;6.53;;;8.90;99.90;;;;;;5002941;28;20248;-73
2024/01/23 09:22:12;;;;;;;23.52;7.85;;;8.90;99.90;;;;;;5011290;28;20597;-72
2024/01/23 09:24:41;;;;;;;36.90;6.88;;;9.00;99.90;;;;;;5004747;28;20217;-73
2024/01/23 09:27:08;;;;;;;43.15;7.30;;;8.90;99.90;;;;;;5004087;28;20259;-74
2024/01/23 09:29:35;;;;;;;31.58;8.93;;;8.70;99.90;;;;;;4999807;28;20216;-73
2024/01/23 09:32:02;;;;;;;38.05;7.55;;;8.70;99.90;;;;;;4999849;28;20229;-73
2024/01/23 09:34:30;;;;;;;20.00;6.40;;;8.80;99.90;;;;;;5002714;28;20279;-73
2024/01/23 09:36:57;;;;;;;31.40;7.07;;;8.80;99.90;;;;;;4996994;28;20630;-72
2024/01/23 09:39:24;;;;;;;22.80;9.02;;;8.80;99.90;;;;;;5011305;28;20197;-73
2024/01/23 09:41:54;;;;;;;36.33;7.65;;;8.90;99.90;;;;;;5004013;28;20221;-73
2024/01/23 09:44:21;;;;;;;31.45;7.40;;;8.90;99.90;;;;;;5000621;28;20293;-73
2024/01/23 09:46:51;;;;;;;36.00;7.70;;;8.80;99.90;;;;;;4997803;28;20622;-73
2024/01/23 09:49:18;;;;;;;23.65;8.13;;;8.70;99.90;;;;;;5000759;28;20308;-72
2024/01/23 09:51:47;;;;;;;26.77;6.32;;;8.70;99.90;;;;;;5008728;28;20248;-74
2024/01/23 09:54:15;;;;;;;43.70;7.93;;;8.70;99.90;;;;;;5006963;28;20202;-72
2024/01/23 09:56:42;;;;;;;26.20;5.70;;;8.70;99.90;;;;;;4999868;28;20578;-74
2024/01/23 09:59:10;;;;;;;24.98;7.20;;;8.80;99.90;;;;;;5003748;28;20261;-75
2024/01/23 10:01:38;;;;;;;28.08;6.22;;;8.90;99.90;;;;;;5001595;28;20314;-74
2024/01/23 10:04:06;;;;;;;30.63;9.93;;;8.90;99.90;;;;;;4994640;28;20233;-71
2024/01/23 10:06:34;;;;;;;24.60;5.45;;;8.90;99.90;;;;;;4997923;28;20213;-72
2024/01/23 10:09:04;;;;;;;30.17;7.28;;;8.90;99.90;;;;;;5003861;28;20216;-74
2024/01/23 10:11:34;;;;;;;34.47;7.30;;;8.90;99.90;;;;;;4998066;28;20305;-71
2024/01/23 10:14:02;;;;;;;28.25;5.70;;;9.00;99.90;;;;;;5009989;28;20201;-74
2024/01/23 10:16:29;;;;;;;25.17;7.50;;;9.10;99.90;;;;;;5006893;28;20279;-72
2024/01/23 10:18:57;;;;;;;31.75;6.60;;;9.20;99.90;;;;;;5001000;28;20594;-74
2024/01/23 10:21:24;;;;;;;31.85;8.10;;;9.20;99.90;;;;;;5003533;28;20205;-72
2024/01/23 10:23:52;;;;;;;22.85;7.03;;;9.20;99.90;;;;;;4998754;28;20204;-73
2024/01/23 10:26:21;;;;;;;28.17;7.65;;;9.20;99.90;;;;;;5003393;28;20299;-75
2024/01/23 10:28:48;;;;;;;23.92;7.80;;;9.10;99.90;;;;;;5008236;28;20651;-72
2024/01/23 10:31:16;;;;;;;23.55;5.80;;;9.10;99.90;;;;;;5002049;28;20320;-72
2024/01/23 10:33:43;;;;;;;16.73;5.35;;;9.30;99.90;;;;;;5002587;28;20225;-72
2024/01/23 10:36:11;;;;;;;31.40;6.40;;;9.30;99.90;;;;;;4998591;28;20210;-72
2024/01/23 10:38:38;;;;;;;29.95;6.93;;;9.20;99.90;;;;;;4994594;28;20261;-74
2024/01/23 10:41:06;;;;;;;23.33;6.55;;;8.90;99.90;;;;;;4999476;28;20256;-73
2024/01/23 10:43:35;;;;;;;33.28;6.05;;;9.00;99.90;;;;;;4996422;28;20324;-73
2024/01/23 10:46:03;;;;;;;31.15;8.13;;;9.00;99.90;;;;;;5000671;28;20213;-72
2024/01/23 10:48:31;;;;;;;32.50;6.03;;;9.00;99.90;;;;;;5006792;28;20583;-75
2024/01/23 10:51:06;;;;;;;27.80;6.80;;;8.90;99.90;;;;;;4997859;28;20205;-72
2024/01/23 10:53:46;;;;;;;28.20;7.03;;;9.00;99.90;;;;;;5003824;28;20228;-73
2024/01/23 10:56:16;;;;;;;37.10;7.57;;;9.00;99.90;;;;;;5005674;28;20660;-74
2024/01/23 10:58:49;;;;;;;31.75;7.00;;;9.10;99.90;;;;;;5002898;28;20209;-74
2024/01/23 11:01:17;;;;;;;25.35;6.82;;;9.00;99.90;;;;;;4998147;28;20260;-74
2024/01/23 11:03:44;;;;;;;27.13;6.57;;;9.00;99.90;;;;;;5004049;28;20767;-75
2024/01/23 11:06:18;;;;;;;21.67;7.38;;;9.00;99.90;;;;;;5006121;28;20276;-73
2024/01/23 11:08:51;;;;;;;30.35;7.03;;;9.20;99.90;;;;;;5010822;28;20216;-74
2024/01/23 11:11:27;;;;;;;37.15;6.72;;;9.10;99.90;;;;;;5001908;28;20206;-73
2024/01/23 11:14:00;;;;;;;30.35;6.32;;;9.30;99.90;;;;;;5000793;28;20662;-74
2024/01/23 11:16:28;;;;;;;25.17;6.07;;;9.30;99.90;;;;;;5003458;28;20205;-72
2024/01/23 11:18:56;;;;;;;31.27;5.80;;;9.30;99.90;;;;;;5002499;28;20288;-75
2024/01/23 11:21:24;;;;;;;27.10;6.45;;;9.40;99.90;;;;;;4998111;28;20249;-74
2024/01/23 11:24:00;;;;;;;35.45;7.57;;;9.40;99.90;;;;;;4997646;28;20206;-72
2024/01/23 11:26:27;;;;;;;30.13;6.63;;;9.30;99.90;;;;;;5004967;28;20391;-74
2024/01/23 11:29:01;;;;;;;32.03;7.03;;;9.30;99.90;;;;;;5001608;28;20295;-73
2024/01/23 11:31:36;;;;;;;27.02;7.30;;;9.20;99.90;;;;;;4996995;28;20287;-74
2024/01/23 11:34:39;;;;;;;30.02;7.90;;;9.30;99.90;;;;;;4997513;28;20633;-73
2024/01/23 11:37:46;;;;;;;27.48;7.13;;;9.40;99.90;;;;;;4994211;28;20209;-73
2024/01/23 11:40:34;;;;;;;32.55;7.22;;;9.10;99.90;;;;;;4994928;28;20212;-73
2024/01/23 11:43:03;;;;;;;26.83;6.95;;;9.00;99.90;;;;;;4997744;28;20229;-75
2024/01/23 11:45:33;;;;;;;33.05;6.88;;;8.90;99.90;;;;;;5002297;28;20727;-74
2024/01/23 11:48:02;;;;;;;30.63;7.22;;;8.90;99.90;;;;;;4997937;28;20724;-75
2024/01/23 11:50:30;;;;;;;18.73;5.40;;;8.90;99.90;;;;;;5005989;28;20672;-73
2024/01/23 11:52:58;;;;;;;29.40;8.10;;;8.90;99.90;;;;;;5000480;28;20636;-76
2024/01/23 11:55:26;;;;;;;36.38;8.77;;;8.90;99.90;;;;;;5003095;28;20198;-74
2024/01/23 11:57:55;;;;;;;25.25;6.97;;;9.00;99.90;;;;;;5005238;28;20759;-74
2024/01/23 12:00:22;;;;;;;34.40;7.85;;;8.90;99.90;;;;;;4997426;28;20203;-74
2024/01/23 12:02:51;;;;;;;33.83;5.85;;;8.90;99.90;;;;;;5002901;28;20232;-75
2024/01/23 12:05:19;;;;;;;24.98;7.57;;;9.00;99.90;;;;;;4997891;28;20206;-74
2024/01/23 12:07:46;;;;;;;32.45;6.68;;;9.00;99.90;;;;;;5007393;28;20293;-75
2024/01/23 12:10:18;;;;;;;27.17;7.22;;;9.10;99.90;;;;;;5004669;28;20281;-75
2024/01/23 12:12:45;;;;;;;20.33;6.57;;;9.10;99.90;;;;;;5008517;28;20229;-73
2024/01/23 12:15:13;;;;;;;22.77;6.30;;;9.00;99.90;;;;;;5001128;28;20605;-73
2024/01/23 12:17:49;;;;;;;25.35;5.80;;;8.90;99.90;;;;;;5005922;28;20206;-74
2024/01/23 12:20:17;;;;;;;34.72;6.35;;;8.80;99.90;;;;;;5006630;28;20204;-73
2024/01/23 12:22:45;;;;;;;21.98;7.55;;;8.80;99.90;;;;;;5005139;28;20296;-74
2024/01/23 12:25:12;;;;;;;25.98;5.40;;;8.90;99.90;;;;;;5008699;28;20205;-74
2024/01/23 12:27:40;;;;;;;17.95;6.18;;;8.80;99.90;;;;;;5000919;28;20289;-74
2024/01/23 12:30:12;;;;;;;25.00;8.35;;;8.90;99.90;;;;;;5009262;28;20218;-74
2024/01/23 12:32:39;;;;;;;19.10;5.85;;;9.10;99.90;;;;;;5008907;28;20276;-75
2024/01/23 12:35:10;;;;;;;48.42;8.90;;;9.20;99.90;;;;;;5002350;28;20660;-74
2024/01/23 12:37:40;;;;;;;32.22;8.07;;;9.30;99.90;;;;;;5005895;28;20292;-74
2024/01/23 12:40:13;;;;;;;22.27;6.63;;;9.30;99.90;;;;;;5003861;28;20518;-75
2024/01/23 12:42:43;;;;;;;22.27;6.03;;;9.20;99.90;;;;;;5006260;28;20229;-74
2024/01/23 12:45:13;;;;;;;17.70;5.28;;;9.20;99.90;;;;;;4996496;28;20292;-74
2024/01/23 12:47:41;;;;;;;26.80;6.78;;;9.30;99.90;;;;;;5002390;28;20344;-74
2024/01/23 12:50:16;;;;;;;26.88;7.75;;;9.30;99.90;;;;;;5005135;28;20759;-74
2024/01/23 12:52:44;;;;;;;31.95;8.60;;;9.30;99.90;;;;;;4998912;28;20247;-73